Startpagina
METAR-TAF:

METAR-TAF

Vliegvelden :

Luchthaven Stockholm-Arlanda

Stockholm-Arlanda, Zweden

breedte: 59-39N, lengte: 017-57E, hoogte: 38 m

Actueel weer

Dit bericht is 47 minuten geleden gemaakt, om 08:20 UTC
Wind 21 kt uit het westzuidwesten met uitschieters tot 31 kt
Temperatuur 17°C
Vochtigheid 77%
Druk 1006 hPa
Zicht 10 km of meer
Gebroken wolken op 2400 ft

METAR: ESSA 190820Z 25021G31KT 9999 BKN024 17/13 Q1006 NOSIG

Tijdstip: 11:07 (09:07 UTC)

Verwachting

Dit bericht is 3 uur en het 37 minuten geleden gemaakt, om 05:30 UTC
Verwachting geldig van 19 om 06 UTC tot 20 om 06 UTC
Wind 12 kt uit het zuidwesten
Zicht 10 km of meer
Verspreide wolken op 2500 ft
Gebroken wolken op 4000 ft
Tijdelijke
van 19 om 08 UTC tot 19 om 16 UTC
Wind 15 kt uit het westzuidwesten met uitschieters tot 25 kt

TAF: ESSA 190530Z 1906/2006 22012KT 9999 SCT025 BKN040 TEMPO 1908/1916 24015G25KT

Waarnemingen en weersverwachtingen van meer dan 4000 vliegvelden (METAR en TAF).

De beschikbare stations zijn de gele en rode punten op de kaart.

Ga met uw muis naar het station om de naam te zien.

Klik dan om waarnemingen en weersverwachtingen te zien.

kaart wijzigen: klik op de groene knoppen met een zwart kruis om in te zoomen, op de groene knop met een streepje om uit te zoomen of op de groene pijlen voor aangrenzende kaarten.


METAR-TAF: